RJOO/ITM METAR and TAF weather

Enter ICAO airport designator
Station Type Date Time Source
RJOO METAR 2022/06/30 00:00 UTC NOAA

RJOO 300000Z 21005KT 160V280 9999 FEW020 30/22 Q1014


Station Type Date Time Source
RJOO Decoded METAR 2022/06/30 00:00 UTC NOAA

Osaka International Airport, Japan (RJOO) 34-47N 135-27E 15M
Jun 29, 2022 - 08:00 PM EDT / 2022.06.30 0000 UTC
Wind: from the SSW (210 degrees) at 6 MPH (5 KT) (direction variable):0
Visibility: greater than 7 mile(s):0
Sky conditions: mostly clear
Temperature: 86 F (30 C)
Heat index: 91.8 F (33.2 C):1
Dew Point: 71 F (22 C)
Relative Humidity: 62%
Pressure (altimeter): 29.94 in. Hg (1014 hPa)
ob: RJOO 300000Z 21005KT 160V280 9999 FEW020 30/22 Q1014
cycle: 0

Station Type Date Time Source
RJOO TAF 2022/06/29 18:28 UTC NOAA

TAF RJOO 291705Z 2918/0100 32004KT 9999 FEW025
BECMG 2922/3000 22007KT
BECMG 3009/3012 32004KT
BECMG 3021/0100 07005KT

Example: see airport list